sensor_id;sensor_type;location;lat;lon;timestamp;P1;durP1;ratioP1;P2;durP2;ratioP2
66830;SDS011;53739;44.224;22.528;2024-01-30T00:02:11;244.05;;;100.20;;
66830;SDS011;53739;44.224;22.528;2024-01-30T00:04:37;268.20;;;110.07;;
66830;SDS011;53739;44.224;22.528;2024-01-30T00:07:03;219.18;;;89.00;;
66830;SDS011;53739;44.224;22.528;2024-01-30T00:09:29;205.77;;;81.72;;
66830;SDS011;53739;44.224;22.528;2024-01-30T00:11:56;195.55;;;78.38;;
66830;SDS011;53739;44.224;22.528;2024-01-30T00:14:22;182.10;;;75.32;;
66830;SDS011;53739;44.224;22.528;2024-01-30T00:16:48;187.70;;;78.63;;
66830;SDS011;53739;44.224;22.528;2024-01-30T00:19:14;174.65;;;72.45;;
66830;SDS011;53739;44.224;22.528;2024-01-30T00:21:40;168.55;;;71.07;;
66830;SDS011;53739;44.224;22.528;2024-01-30T00:30:14;172.27;;;76.05;;
66830;SDS011;53739;44.224;22.528;2024-01-30T00:32:40;192.00;;;83.15;;
66830;SDS011;53739;44.224;22.528;2024-01-30T00:35:06;157.57;;;73.05;;
66830;SDS011;53739;44.224;22.528;2024-01-30T00:37:34;174.95;;;76.40;;
66830;SDS011;53739;44.224;22.528;2024-01-30T00:40:01;312.35;;;118.63;;
66830;SDS011;53739;44.224;22.528;2024-01-30T00:42:27;240.18;;;95.43;;
66830;SDS011;53739;44.224;22.528;2024-01-30T00:44:53;190.55;;;83.07;;
66830;SDS011;53739;44.224;22.528;2024-01-30T00:47:19;173.98;;;68.10;;
66830;SDS011;53739;44.224;22.528;2024-01-30T00:49:45;130.40;;;59.05;;
66830;SDS011;53739;44.224;22.528;2024-01-30T00:52:11;100.28;;;45.28;;
66830;SDS011;53739;44.224;22.528;2024-01-30T00:54:37;108.60;;;46.67;;
66830;SDS011;53739;44.224;22.528;2024-01-30T00:57:04;100.25;;;45.17;;
66830;SDS011;53739;44.224;22.528;2024-01-30T00:59:30;110.53;;;47.45;;
66830;SDS011;53739;44.224;22.528;2024-01-30T01:01:56;124.30;;;52.75;;
66830;SDS011;53739;44.224;22.528;2024-01-30T01:04:22;163.75;;;66.80;;
66830;SDS011;53739;44.224;22.528;2024-01-30T01:06:48;167.60;;;67.88;;
66830;SDS011;53739;44.224;22.528;2024-01-30T01:09:14;182.23;;;75.60;;
66830;SDS011;53739;44.224;22.528;2024-01-30T01:11:41;191.25;;;79.43;;
66830;SDS011;53739;44.224;22.528;2024-01-30T01:14:07;175.25;;;79.60;;
66830;SDS011;53739;44.224;22.528;2024-01-30T01:16:33;169.50;;;74.63;;
66830;SDS011;53739;44.224;22.528;2024-01-30T01:18:59;118.82;;;54.38;;
66830;SDS011;53739;44.224;22.528;2024-01-30T01:21:25;112.38;;;49.72;;
66830;SDS011;53739;44.224;22.528;2024-01-30T01:23:52;84.28;;;42.03;;
66830;SDS011;53739;44.224;22.528;2024-01-30T01:26:18;84.53;;;36.17;;
66830;SDS011;53739;44.224;22.528;2024-01-30T01:28:44;82.45;;;36.38;;
66830;SDS011;53739;44.224;22.528;2024-01-30T01:31:10;80.85;;;36.83;;
66830;SDS011;53739;44.224;22.528;2024-01-30T01:33:36;97.80;;;45.10;;
66830;SDS011;53739;44.224;22.528;2024-01-30T01:36:03;100.30;;;36.90;;
66830;SDS011;53739;44.224;22.528;2024-01-30T01:38:29;107.13;;;46.75;;
66830;SDS011;53739;44.224;22.528;2024-01-30T01:40:55;102.53;;;47.47;;
66830;SDS011;53739;44.224;22.528;2024-01-30T01:43:21;83.82;;;39.78;;
66830;SDS011;53739;44.224;22.528;2024-01-30T01:45:47;92.47;;;40.15;;
66830;SDS011;53739;44.224;22.528;2024-01-30T01:48:13;85.80;;;39.60;;
66830;SDS011;53739;44.224;22.528;2024-01-30T01:50:41;99.10;;;39.03;;
66830;SDS011;53739;44.224;22.528;2024-01-30T01:53:08;367.55;;;123.60;;
66830;SDS011;53739;44.224;22.528;2024-01-30T01:55:34;165.13;;;65.75;;
66830;SDS011;53739;44.224;22.528;2024-01-30T01:58:01;108.63;;;48.28;;
66830;SDS011;53739;44.224;22.528;2024-01-30T02:00:27;98.28;;;40.85;;
66830;SDS011;53739;44.224;22.528;2024-01-30T02:02:54;176.43;;;66.32;;
66830;SDS011;53739;44.224;22.528;2024-01-30T02:05:21;149.07;;;56.53;;
66830;SDS011;53739;44.224;22.528;2024-01-30T02:07:47;126.22;;;54.15;;
66830;SDS011;53739;44.224;22.528;2024-01-30T02:10:13;127.38;;;52.85;;
66830;SDS011;53739;44.224;22.528;2024-01-30T02:12:39;112.68;;;48.15;;
66830;SDS011;53739;44.224;22.528;2024-01-30T02:15:05;127.45;;;49.75;;
66830;SDS011;53739;44.224;22.528;2024-01-30T02:17:33;116.00;;;49.67;;
66830;SDS011;53739;44.224;22.528;2024-01-30T02:19:59;123.28;;;50.50;;
66830;SDS011;53739;44.224;22.528;2024-01-30T02:22:25;125.55;;;49.67;;
66830;SDS011;53739;44.224;22.528;2024-01-30T02:24:51;108.15;;;45.90;;
66830;SDS011;53739;44.224;22.528;2024-01-30T02:27:17;133.50;;;52.50;;
66830;SDS011;53739;44.224;22.528;2024-01-30T02:29:44;132.55;;;54.38;;
66830;SDS011;53739;44.224;22.528;2024-01-30T02:32:10;134.20;;;53.20;;
66830;SDS011;53739;44.224;22.528;2024-01-30T02:34:36;116.25;;;52.67;;
66830;SDS011;53739;44.224;22.528;2024-01-30T02:37:02;121.13;;;49.63;;
66830;SDS011;53739;44.224;22.528;2024-01-30T02:39:28;114.05;;;45.63;;
66830;SDS011;53739;44.224;22.528;2024-01-30T02:41:55;108.22;;;44.38;;
66830;SDS011;53739;44.224;22.528;2024-01-30T02:44:22;105.03;;;43.92;;
66830;SDS011;53739;44.224;22.528;2024-01-30T02:46:48;101.03;;;42.75;;
66830;SDS011;53739;44.224;22.528;2024-01-30T02:49:14;81.82;;;37.50;;
66830;SDS011;53739;44.224;22.528;2024-01-30T02:51:40;103.95;;;42.25;;
66830;SDS011;53739;44.224;22.528;2024-01-30T02:54:06;98.68;;;37.85;;
66830;SDS011;53739;44.224;22.528;2024-01-30T02:56:32;99.95;;;40.45;;
66830;SDS011;53739;44.224;22.528;2024-01-30T02:58:58;114.00;;;48.92;;
66830;SDS011;53739;44.224;22.528;2024-01-30T03:01:25;138.82;;;56.38;;
66830;SDS011;53739;44.224;22.528;2024-01-30T03:03:51;115.15;;;52.50;;
66830;SDS011;53739;44.224;22.528;2024-01-30T03:06:17;121.45;;;53.85;;
66830;SDS011;53739;44.224;22.528;2024-01-30T03:08:45;123.13;;;53.05;;
66830;SDS011;53739;44.224;22.528;2024-01-30T03:11:11;117.68;;;56.33;;
66830;SDS011;53739;44.224;22.528;2024-01-30T03:13:37;116.38;;;54.10;;
66830;SDS011;53739;44.224;22.528;2024-01-30T03:16:03;119.78;;;52.97;;
66830;SDS011;53739;44.224;22.528;2024-01-30T03:18:29;142.73;;;58.00;;
66830;SDS011;53739;44.224;22.528;2024-01-30T03:20:56;149.10;;;62.22;;
66830;SDS011;53739;44.224;22.528;2024-01-30T03:23:22;142.65;;;59.00;;
66830;SDS011;53739;44.224;22.528;2024-01-30T03:25:48;135.50;;;57.60;;
66830;SDS011;53739;44.224;22.528;2024-01-30T03:28:14;137.88;;;54.08;;
66830;SDS011;53739;44.224;22.528;2024-01-30T03:30:40;99.30;;;43.17;;
66830;SDS011;53739;44.224;22.528;2024-01-30T03:33:06;140.52;;;55.95;;
66830;SDS011;53739;44.224;22.528;2024-01-30T03:35:32;140.07;;;53.50;;
66830;SDS011;53739;44.224;22.528;2024-01-30T03:37:58;134.93;;;57.05;;
66830;SDS011;53739;44.224;22.528;2024-01-30T03:40:25;152.55;;;60.58;;
66830;SDS011;53739;44.224;22.528;2024-01-30T03:42:51;143.27;;;57.05;;
66830;SDS011;53739;44.224;22.528;2024-01-30T03:45:17;137.95;;;58.75;;
66830;SDS011;53739;44.224;22.528;2024-01-30T03:47:44;137.90;;;57.22;;
66830;SDS011;53739;44.224;22.528;2024-01-30T03:50:10;135.23;;;56.50;;
66830;SDS011;53739;44.224;22.528;2024-01-30T03:52:37;149.18;;;60.22;;
66830;SDS011;53739;44.224;22.528;2024-01-30T03:55:03;144.27;;;57.97;;
66830;SDS011;53739;44.224;22.528;2024-01-30T03:57:29;134.82;;;60.15;;
66830;SDS011;53739;44.224;22.528;2024-01-30T03:59:55;142.57;;;59.85;;
66830;SDS011;53739;44.224;22.528;2024-01-30T04:02:21;104.32;;;49.00;;
66830;SDS011;53739;44.224;22.528;2024-01-30T04:04:47;72.55;;;35.35;;
66830;SDS011;53739;44.224;22.528;2024-01-30T04:07:14;69.55;;;27.80;;
66830;SDS011;53739;44.224;22.528;2024-01-30T04:09:40;60.92;;;27.25;;
66830;SDS011;53739;44.224;22.528;2024-01-30T04:12:06;56.95;;;28.50;;
66830;SDS011;53739;44.224;22.528;2024-01-30T04:14:32;44.22;;;23.58;;
66830;SDS011;53739;44.224;22.528;2024-01-30T04:16:58;51.08;;;23.70;;
66830;SDS011;53739;44.224;22.528;2024-01-30T04:19:24;49.80;;;24.90;;
66830;SDS011;53739;44.224;22.528;2024-01-30T04:21:50;49.83;;;23.75;;
66830;SDS011;53739;44.224;22.528;2024-01-30T04:24:16;52.95;;;23.73;;
66830;SDS011;53739;44.224;22.528;2024-01-30T04:26:43;49.08;;;22.63;;
66830;SDS011;53739;44.224;22.528;2024-01-30T04:29:09;46.40;;;22.92;;
66830;SDS011;53739;44.224;22.528;2024-01-30T04:31:36;53.00;;;24.40;;
66830;SDS011;53739;44.224;22.528;2024-01-30T04:34:02;47.60;;;22.80;;
66830;SDS011;53739;44.224;22.528;2024-01-30T04:36:28;52.72;;;24.17;;
66830;SDS011;53739;44.224;22.528;2024-01-30T04:38:54;84.50;;;34.50;;
66830;SDS011;53739;44.224;22.528;2024-01-30T04:41:20;82.47;;;33.40;;
66830;SDS011;53739;44.224;22.528;2024-01-30T04:43:47;74.78;;;30.98;;
66830;SDS011;53739;44.224;22.528;2024-01-30T04:46:13;63.08;;;26.17;;
66830;SDS011;53739;44.224;22.528;2024-01-30T04:48:39;58.88;;;26.77;;
66830;SDS011;53739;44.224;22.528;2024-01-30T04:51:05;63.55;;;27.15;;
66830;SDS011;53739;44.224;22.528;2024-01-30T04:53:31;56.95;;;26.88;;
66830;SDS011;53739;44.224;22.528;2024-01-30T04:55:57;58.95;;;25.92;;
66830;SDS011;53739;44.224;22.528;2024-01-30T04:58:24;50.92;;;23.58;;
66830;SDS011;53739;44.224;22.528;2024-01-30T05:00:50;77.38;;;30.98;;
66830;SDS011;53739;44.224;22.528;2024-01-30T05:03:17;93.50;;;41.20;;
66830;SDS011;53739;44.224;22.528;2024-01-30T05:05:43;91.03;;;38.58;;
66830;SDS011;53739;44.224;22.528;2024-01-30T05:08:09;118.38;;;42.47;;
66830;SDS011;53739;44.224;22.528;2024-01-30T05:10:35;107.85;;;39.53;;
66830;SDS011;53739;44.224;22.528;2024-01-30T05:13:02;112.50;;;43.38;;
66830;SDS011;53739;44.224;22.528;2024-01-30T05:15:28;108.90;;;40.60;;
66830;SDS011;53739;44.224;22.528;2024-01-30T05:17:54;133.82;;;46.17;;
66830;SDS011;53739;44.224;22.528;2024-01-30T05:20:20;110.65;;;42.75;;
66830;SDS011;53739;44.224;22.528;2024-01-30T05:22:46;104.68;;;39.65;;
66830;SDS011;53739;44.224;22.528;2024-01-30T05:25:13;103.72;;;39.15;;
66830;SDS011;53739;44.224;22.528;2024-01-30T05:27:39;106.07;;;38.17;;
66830;SDS011;53739;44.224;22.528;2024-01-30T05:30:06;108.45;;;41.03;;
66830;SDS011;53739;44.224;22.528;2024-01-30T05:32:32;122.07;;;47.00;;
66830;SDS011;53739;44.224;22.528;2024-01-30T05:34:59;98.95;;;42.65;;
66830;SDS011;53739;44.224;22.528;2024-01-30T05:37:25;119.90;;;46.03;;
66830;SDS011;53739;44.224;22.528;2024-01-30T05:39:51;118.80;;;48.15;;
66830;SDS011;53739;44.224;22.528;2024-01-30T05:42:17;132.93;;;51.03;;
66830;SDS011;53739;44.224;22.528;2024-01-30T05:44:43;128.40;;;50.60;;
66830;SDS011;53739;44.224;22.528;2024-01-30T05:47:09;139.65;;;54.20;;
66830;SDS011;53739;44.224;22.528;2024-01-30T05:49:35;194.80;;;72.18;;
66830;SDS011;53739;44.224;22.528;2024-01-30T05:52:02;270.70;;;99.80;;
66830;SDS011;53739;44.224;22.528;2024-01-30T05:54:29;349.58;;;120.88;;
66830;SDS011;53739;44.224;22.528;2024-01-30T05:56:55;299.05;;;114.78;;
66830;SDS011;53739;44.224;22.528;2024-01-30T05:59:21;177.70;;;72.13;;
66830;SDS011;53739;44.224;22.528;2024-01-30T06:01:47;146.15;;;61.95;;
66830;SDS011;53739;44.224;22.528;2024-01-30T06:04:14;111.22;;;49.95;;
66830;SDS011;53739;44.224;22.528;2024-01-30T06:06:40;88.88;;;41.20;;
66830;SDS011;53739;44.224;22.528;2024-01-30T06:09:06;101.35;;;43.15;;
66830;SDS011;53739;44.224;22.528;2024-01-30T06:11:34;138.15;;;52.58;;
66830;SDS011;53739;44.224;22.528;2024-01-30T06:14:00;154.88;;;60.25;;
66830;SDS011;53739;44.224;22.528;2024-01-30T06:16:27;160.40;;;62.67;;
66830;SDS011;53739;44.224;22.528;2024-01-30T06:18:54;173.05;;;66.75;;
66830;SDS011;53739;44.224;22.528;2024-01-30T06:21:21;147.05;;;62.25;;
66830;SDS011;53739;44.224;22.528;2024-01-30T06:23:47;176.73;;;75.10;;
66830;SDS011;53739;44.224;22.528;2024-01-30T06:26:13;163.50;;;69.85;;
66830;SDS011;53739;44.224;22.528;2024-01-30T06:28:39;153.77;;;66.03;;
66830;SDS011;53739;44.224;22.528;2024-01-30T06:31:05;150.60;;;62.88;;
66830;SDS011;53739;44.224;22.528;2024-01-30T06:33:32;145.70;;;66.85;;
66830;SDS011;53739;44.224;22.528;2024-01-30T06:35:58;144.80;;;61.72;;
66830;SDS011;53739;44.224;22.528;2024-01-30T06:38:24;134.63;;;62.72;;
66830;SDS011;53739;44.224;22.528;2024-01-30T06:40:50;174.77;;;66.43;;
66830;SDS011;53739;44.224;22.528;2024-01-30T06:43:16;173.60;;;74.40;;
66830;SDS011;53739;44.224;22.528;2024-01-30T06:45:42;172.93;;;77.53;;
66830;SDS011;53739;44.224;22.528;2024-01-30T06:48:09;182.38;;;78.75;;
66830;SDS011;53739;44.224;22.528;2024-01-30T06:50:35;215.88;;;91.80;;
66830;SDS011;53739;44.224;22.528;2024-01-30T06:53:01;226.63;;;101.90;;
66830;SDS011;53739;44.224;22.528;2024-01-30T06:55:27;255.77;;;107.70;;
66830;SDS011;53739;44.224;22.528;2024-01-30T06:57:53;256.15;;;111.65;;
66830;SDS011;53739;44.224;22.528;2024-01-30T07:00:19;263.35;;;120.50;;
66830;SDS011;53739;44.224;22.528;2024-01-30T07:02:46;187.20;;;89.05;;
66830;SDS011;53739;44.224;22.528;2024-01-30T07:05:12;158.05;;;70.65;;
66830;SDS011;53739;44.224;22.528;2024-01-30T07:07:39;152.27;;;70.93;;
66830;SDS011;53739;44.224;22.528;2024-01-30T07:10:05;164.60;;;69.90;;
66830;SDS011;53739;44.224;22.528;2024-01-30T07:12:32;144.10;;;66.78;;
66830;SDS011;53739;44.224;22.528;2024-01-30T07:14:58;162.55;;;66.75;;
66830;SDS011;53739;44.224;22.528;2024-01-30T07:17:24;163.13;;;67.22;;
66830;SDS011;53739;44.224;22.528;2024-01-30T07:19:51;187.63;;;74.32;;
66830;SDS011;53739;44.224;22.528;2024-01-30T07:22:17;200.27;;;81.13;;
66830;SDS011;53739;44.224;22.528;2024-01-30T07:24:43;193.07;;;82.20;;
66830;SDS011;53739;44.224;22.528;2024-01-30T07:27:14;181.60;;;81.00;;
66830;SDS011;53739;44.224;22.528;2024-01-30T07:29:42;209.63;;;91.57;;
66830;SDS011;53739;44.224;22.528;2024-01-30T07:32:08;147.75;;;70.00;;
66830;SDS011;53739;44.224;22.528;2024-01-30T07:34:34;200.60;;;91.32;;
66830;SDS011;53739;44.224;22.528;2024-01-30T07:37:01;130.13;;;64.88;;
66830;SDS011;53739;44.224;22.528;2024-01-30T07:39:27;145.65;;;63.92;;
66830;SDS011;53739;44.224;22.528;2024-01-30T07:41:54;163.52;;;68.68;;
66830;SDS011;53739;44.224;22.528;2024-01-30T07:44:20;146.10;;;65.00;;
66830;SDS011;53739;44.224;22.528;2024-01-30T07:46:46;165.23;;;71.03;;
66830;SDS011;53739;44.224;22.528;2024-01-30T07:49:12;152.88;;;71.28;;
66830;SDS011;53739;44.224;22.528;2024-01-30T07:51:39;143.55;;;71.28;;
66830;SDS011;53739;44.224;22.528;2024-01-30T07:54:05;118.30;;;59.22;;
66830;SDS011;53739;44.224;22.528;2024-01-30T07:56:31;123.80;;;61.50;;
66830;SDS011;53739;44.224;22.528;2024-01-30T07:58:57;141.30;;;68.72;;
66830;SDS011;53739;44.224;22.528;2024-01-30T08:01:24;141.13;;;68.57;;
66830;SDS011;53739;44.224;22.528;2024-01-30T08:03:50;143.45;;;67.60;;
66830;SDS011;53739;44.224;22.528;2024-01-30T08:06:16;136.98;;;71.25;;
66830;SDS011;53739;44.224;22.528;2024-01-30T08:08:42;121.55;;;63.67;;
66830;SDS011;53739;44.224;22.528;2024-01-30T08:11:09;99.30;;;51.22;;
66830;SDS011;53739;44.224;22.528;2024-01-30T08:13:35;122.75;;;59.72;;
66830;SDS011;53739;44.224;22.528;2024-01-30T08:16:01;96.07;;;45.78;;
66830;SDS011;53739;44.224;22.528;2024-01-30T08:18:27;76.63;;;39.58;;
66830;SDS011;53739;44.224;22.528;2024-01-30T08:20:53;68.72;;;36.90;;
66830;SDS011;53739;44.224;22.528;2024-01-30T08:23:19;67.07;;;34.92;;
66830;SDS011;53739;44.224;22.528;2024-01-30T08:25:45;55.38;;;28.13;;
66830;SDS011;53739;44.224;22.528;2024-01-30T08:28:11;50.58;;;29.30;;
66830;SDS011;53739;44.224;22.528;2024-01-30T08:30:38;59.22;;;28.52;;
66830;SDS011;53739;44.224;22.528;2024-01-30T08:33:04;41.80;;;21.20;;
66830;SDS011;53739;44.224;22.528;2024-01-30T08:35:31;39.28;;;20.13;;
66830;SDS011;53739;44.224;22.528;2024-01-30T08:37:58;32.60;;;17.10;;
66830;SDS011;53739;44.224;22.528;2024-01-30T08:40:25;34.03;;;17.13;;
66830;SDS011;53739;44.224;22.528;2024-01-30T08:42:51;33.92;;;18.15;;
66830;SDS011;53739;44.224;22.528;2024-01-30T08:45:17;30.92;;;16.92;;
66830;SDS011;53739;44.224;22.528;2024-01-30T08:47:44;28.95;;;15.30;;
66830;SDS011;53739;44.224;22.528;2024-01-30T08:50:10;28.42;;;16.25;;
66830;SDS011;53739;44.224;22.528;2024-01-30T08:52:36;31.15;;;16.42;;
66830;SDS011;53739;44.224;22.528;2024-01-30T08:55:02;29.73;;;15.43;;
66830;SDS011;53739;44.224;22.528;2024-01-30T08:57:29;28.13;;;14.35;;
66830;SDS011;53739;44.224;22.528;2024-01-30T08:59:55;37.83;;;16.33;;
66830;SDS011;53739;44.224;22.528;2024-01-30T09:02:22;27.92;;;15.02;;
66830;SDS011;53739;44.224;22.528;2024-01-30T09:04:48;30.05;;;14.85;;
66830;SDS011;53739;44.224;22.528;2024-01-30T09:07:14;26.63;;;12.88;;
66830;SDS011;53739;44.224;22.528;2024-01-30T09:09:40;28.23;;;14.05;;
66830;SDS011;53739;44.224;22.528;2024-01-30T09:12:07;25.55;;;14.65;;
66830;SDS011;53739;44.224;22.528;2024-01-30T09:14:34;47.03;;;19.42;;
66830;SDS011;53739;44.224;22.528;2024-01-30T09:17:00;27.55;;;15.90;;
66830;SDS011;53739;44.224;22.528;2024-01-30T09:19:28;24.98;;;14.43;;
66830;SDS011;53739;44.224;22.528;2024-01-30T09:21:54;26.90;;;12.95;;
66830;SDS011;53739;44.224;22.528;2024-01-30T09:24:20;26.63;;;13.82;;
66830;SDS011;53739;44.224;22.528;2024-01-30T09:26:46;40.47;;;19.75;;
66830;SDS011;53739;44.224;22.528;2024-01-30T09:29:12;33.10;;;16.17;;
66830;SDS011;53739;44.224;22.528;2024-01-30T09:31:39;37.55;;;17.25;;
66830;SDS011;53739;44.224;22.528;2024-01-30T09:34:05;49.85;;;23.15;;
66830;SDS011;53739;44.224;22.528;2024-01-30T09:36:31;27.52;;;14.43;;
66830;SDS011;53739;44.224;22.528;2024-01-30T09:38:57;21.92;;;11.82;;
66830;SDS011;53739;44.224;22.528;2024-01-30T09:41:24;23.40;;;11.98;;
66830;SDS011;53739;44.224;22.528;2024-01-30T09:43:50;36.35;;;17.83;;
66830;SDS011;53739;44.224;22.528;2024-01-30T09:46:16;31.65;;;16.55;;
66830;SDS011;53739;44.224;22.528;2024-01-30T09:48:46;41.00;;;20.33;;
66830;SDS011;53739;44.224;22.528;2024-01-30T09:51:15;27.05;;;15.23;;
66830;SDS011;53739;44.224;22.528;2024-01-30T09:53:42;28.70;;;16.35;;
66830;SDS011;53739;44.224;22.528;2024-01-30T09:56:09;29.88;;;14.48;;
66830;SDS011;53739;44.224;22.528;2024-01-30T09:58:36;30.08;;;15.57;;
66830;SDS011;53739;44.224;22.528;2024-01-30T10:01:02;19.35;;;12.13;;
66830;SDS011;53739;44.224;22.528;2024-01-30T10:03:28;26.30;;;13.38;;
66830;SDS011;53739;44.224;22.528;2024-01-30T10:05:54;21.73;;;12.25;;
66830;SDS011;53739;44.224;22.528;2024-01-30T10:08:21;27.10;;;14.60;;
66830;SDS011;53739;44.224;22.528;2024-01-30T10:10:48;40.75;;;18.88;;
66830;SDS011;53739;44.224;22.528;2024-01-30T10:13:17;19.33;;;10.90;;
66830;SDS011;53739;44.224;22.528;2024-01-30T10:15:44;20.52;;;10.68;;
66830;SDS011;53739;44.224;22.528;2024-01-30T10:18:10;41.83;;;19.05;;
66830;SDS011;53739;44.224;22.528;2024-01-30T10:20:36;40.65;;;19.40;;
66830;SDS011;53739;44.224;22.528;2024-01-30T10:23:03;62.20;;;25.55;;
66830;SDS011;53739;44.224;22.528;2024-01-30T10:25:30;41.47;;;21.38;;
66830;SDS011;53739;44.224;22.528;2024-01-30T10:27:58;39.90;;;19.65;;
66830;SDS011;53739;44.224;22.528;2024-01-30T10:30:25;24.15;;;12.80;;
66830;SDS011;53739;44.224;22.528;2024-01-30T10:32:51;24.60;;;12.93;;
66830;SDS011;53739;44.224;22.528;2024-01-30T10:35:17;20.95;;;12.50;;
66830;SDS011;53739;44.224;22.528;2024-01-30T10:37:44;23.98;;;11.77;;
66830;SDS011;53739;44.224;22.528;2024-01-30T10:40:13;31.13;;;18.05;;
66830;SDS011;53739;44.224;22.528;2024-01-30T10:42:44;25.10;;;12.50;;
66830;SDS011;53739;44.224;22.528;2024-01-30T10:45:11;33.30;;;17.60;;
66830;SDS011;53739;44.224;22.528;2024-01-30T10:47:39;46.45;;;33.75;;
66830;SDS011;53739;44.224;22.528;2024-01-30T10:50:05;25.15;;;15.68;;
66830;SDS011;53739;44.224;22.528;2024-01-30T10:52:33;23.90;;;13.13;;
66830;SDS011;53739;44.224;22.528;2024-01-30T10:54:59;27.48;;;13.55;;
66830;SDS011;53739;44.224;22.528;2024-01-30T10:57:26;20.20;;;11.18;;
66830;SDS011;53739;44.224;22.528;2024-01-30T10:59:55;16.10;;;9.50;;
66830;SDS011;53739;44.224;22.528;2024-01-30T11:02:22;19.00;;;10.75;;
66830;SDS011;53739;44.224;22.528;2024-01-30T11:04:49;16.50;;;8.70;;
66830;SDS011;53739;44.224;22.528;2024-01-30T11:07:16;22.58;;;9.15;;
66830;SDS011;53739;44.224;22.528;2024-01-30T11:09:52;16.30;;;9.05;;
66830;SDS011;53739;44.224;22.528;2024-01-30T11:12:22;15.73;;;9.73;;
66830;SDS011;53739;44.224;22.528;2024-01-30T11:14:48;18.00;;;10.35;;
66830;SDS011;53739;44.224;22.528;2024-01-30T11:17:15;28.10;;;12.73;;
66830;SDS011;53739;44.224;22.528;2024-01-30T11:19:41;23.70;;;11.35;;
66830;SDS011;53739;44.224;22.528;2024-01-30T11:22:07;24.65;;;13.20;;
66830;SDS011;53739;44.224;22.528;2024-01-30T11:24:40;38.28;;;15.90;;
66830;SDS011;53739;44.224;22.528;2024-01-30T11:27:09;26.83;;;13.25;;
66830;SDS011;53739;44.224;22.528;2024-01-30T11:29:35;17.60;;;9.40;;
66830;SDS011;53739;44.224;22.528;2024-01-30T11:32:02;23.55;;;12.80;;
66830;SDS011;53739;44.224;22.528;2024-01-30T11:34:28;18.23;;;9.82;;
66830;SDS011;53739;44.224;22.528;2024-01-30T11:37:04;19.00;;;10.18;;
66830;SDS011;53739;44.224;22.528;2024-01-30T11:39:35;19.58;;;10.98;;
66830;SDS011;53739;44.224;22.528;2024-01-30T11:42:01;19.08;;;10.02;;
66830;SDS011;53739;44.224;22.528;2024-01-30T11:44:29;17.00;;;9.27;;
66830;SDS011;53739;44.224;22.528;2024-01-30T11:46:56;19.30;;;9.88;;
66830;SDS011;53739;44.224;22.528;2024-01-30T11:49:22;17.02;;;10.07;;
66830;SDS011;53739;44.224;22.528;2024-01-30T11:51:49;19.25;;;9.95;;
66830;SDS011;53739;44.224;22.528;2024-01-30T11:54:15;17.75;;;9.50;;
66830;SDS011;53739;44.224;22.528;2024-01-30T11:56:42;17.15;;;10.43;;
66830;SDS011;53739;44.224;22.528;2024-01-30T11:59:11;21.13;;;13.10;;
66830;SDS011;53739;44.224;22.528;2024-01-30T12:01:37;17.35;;;10.18;;
66830;SDS011;53739;44.224;22.528;2024-01-30T12:04:03;25.58;;;12.82;;
66830;SDS011;53739;44.224;22.528;2024-01-30T12:06:34;19.75;;;11.50;;
66830;SDS011;53739;44.224;22.528;2024-01-30T12:09:01;13.13;;;7.72;;
66830;SDS011;53739;44.224;22.528;2024-01-30T12:11:33;22.17;;;12.45;;
66830;SDS011;53739;44.224;22.528;2024-01-30T12:13:59;30.67;;;15.95;;
66830;SDS011;53739;44.224;22.528;2024-01-30T12:16:25;18.13;;;11.90;;
66830;SDS011;53739;44.224;22.528;2024-01-30T12:18:59;19.05;;;11.43;;
66830;SDS011;53739;44.224;22.528;2024-01-30T12:21:26;13.63;;;8.68;;
66830;SDS011;53739;44.224;22.528;2024-01-30T12:23:52;16.55;;;10.55;;
66830;SDS011;53739;44.224;22.528;2024-01-30T12:26:18;15.43;;;9.10;;
66830;SDS011;53739;44.224;22.528;2024-01-30T12:28:48;27.48;;;14.23;;
66830;SDS011;53739;44.224;22.528;2024-01-30T12:31:15;46.88;;;21.52;;
66830;SDS011;53739;44.224;22.528;2024-01-30T12:33:41;24.70;;;14.20;;
66830;SDS011;53739;44.224;22.528;2024-01-30T12:36:07;22.58;;;12.77;;
66830;SDS011;53739;44.224;22.528;2024-01-30T12:38:33;17.58;;;10.15;;
66830;SDS011;53739;44.224;22.528;2024-01-30T12:40:59;18.27;;;10.77;;
66830;SDS011;53739;44.224;22.528;2024-01-30T12:43:25;19.95;;;12.00;;
66830;SDS011;53739;44.224;22.528;2024-01-30T12:45:55;23.33;;;13.73;;
66830;SDS011;53739;44.224;22.528;2024-01-30T12:48:21;27.08;;;13.48;;
66830;SDS011;53739;44.224;22.528;2024-01-30T12:50:47;53.22;;;26.98;;
66830;SDS011;53739;44.224;22.528;2024-01-30T12:53:13;23.20;;;14.13;;
66830;SDS011;53739;44.224;22.528;2024-01-30T12:55:39;18.73;;;11.23;;
66830;SDS011;53739;44.224;22.528;2024-01-30T12:58:05;23.35;;;10.52;;
66830;SDS011;53739;44.224;22.528;2024-01-30T13:00:33;21.08;;;11.75;;
66830;SDS011;53739;44.224;22.528;2024-01-30T13:02:59;18.17;;;10.23;;
66830;SDS011;53739;44.224;22.528;2024-01-30T13:05:25;22.67;;;11.98;;
66830;SDS011;53739;44.224;22.528;2024-01-30T13:07:52;20.08;;;11.23;;
66830;SDS011;53739;44.224;22.528;2024-01-30T13:10:18;18.38;;;11.07;;
66830;SDS011;53739;44.224;22.528;2024-01-30T13:12:45;17.17;;;8.98;;
66830;SDS011;53739;44.224;22.528;2024-01-30T13:15:11;18.63;;;11.05;;
66830;SDS011;53739;44.224;22.528;2024-01-30T13:17:37;29.42;;;13.00;;
66830;SDS011;53739;44.224;22.528;2024-01-30T13:20:03;21.02;;;10.80;;
66830;SDS011;53739;44.224;22.528;2024-01-30T13:22:31;19.85;;;10.93;;
66830;SDS011;53739;44.224;22.528;2024-01-30T13:24:57;22.30;;;13.65;;
66830;SDS011;53739;44.224;22.528;2024-01-30T13:27:23;17.90;;;12.52;;
66830;SDS011;53739;44.224;22.528;2024-01-30T13:29:50;53.33;;;22.38;;
66830;SDS011;53739;44.224;22.528;2024-01-30T13:32:16;39.63;;;20.23;;
66830;SDS011;53739;44.224;22.528;2024-01-30T13:34:42;25.27;;;13.32;;
66830;SDS011;53739;44.224;22.528;2024-01-30T13:37:08;32.75;;;15.18;;
66830;SDS011;53739;44.224;22.528;2024-01-30T13:39:34;43.80;;;16.08;;
66830;SDS011;53739;44.224;22.528;2024-01-30T13:42:00;24.30;;;13.65;;
66830;SDS011;53739;44.224;22.528;2024-01-30T13:44:27;26.48;;;13.93;;
66830;SDS011;53739;44.224;22.528;2024-01-30T13:46:54;29.83;;;18.23;;
66830;SDS011;53739;44.224;22.528;2024-01-30T13:49:20;31.13;;;17.15;;
66830;SDS011;53739;44.224;22.528;2024-01-30T13:51:47;29.90;;;15.27;;
66830;SDS011;53739;44.224;22.528;2024-01-30T13:54:13;42.55;;;17.38;;
66830;SDS011;53739;44.224;22.528;2024-01-30T13:56:40;28.15;;;13.52;;
66830;SDS011;53739;44.224;22.528;2024-01-30T13:59:06;31.40;;;16.67;;
66830;SDS011;53739;44.224;22.528;2024-01-30T14:01:32;36.35;;;18.63;;
66830;SDS011;53739;44.224;22.528;2024-01-30T14:03:59;28.90;;;14.65;;
66830;SDS011;53739;44.224;22.528;2024-01-30T14:06:25;33.50;;;18.17;;